createdAt,value
2023-01-28T00:01:52.839Z,1.85
2023-01-28T00:04:26.066Z,1.83
2023-01-28T00:06:53.902Z,1.82
2023-01-28T00:09:27.178Z,1.82
2023-01-28T00:11:53.826Z,1.81
2023-01-28T00:14:27.114Z,1.73
2023-01-28T00:16:53.895Z,1.77
2023-01-28T00:19:27.143Z,1.77
2023-01-28T00:21:53.929Z,1.75
2023-01-28T00:24:27.150Z,1.73
2023-01-28T00:27:00.151Z,1.72
2023-01-28T00:29:27.383Z,1.68
2023-01-28T00:32:00.271Z,1.68
2023-01-28T00:34:27.001Z,1.65
2023-01-28T00:37:06.071Z,1.62
2023-01-28T00:39:33.108Z,1.61
2023-01-28T00:42:06.221Z,1.59
2023-01-28T00:44:39.186Z,1.57
2023-01-28T00:47:12.296Z,1.54
2023-01-28T00:49:46.179Z,1.50
2023-01-28T00:52:13.450Z,1.47
2023-01-28T00:54:47.170Z,1.44
2023-01-28T00:57:14.179Z,1.37
2023-01-28T01:00:01.132Z,1.38
2023-01-28T01:02:27.991Z,1.38
2023-01-28T01:05:07.271Z,1.34
2023-01-28T01:07:41.931Z,1.33
2023-01-28T01:10:29.172Z,1.30
2023-01-28T01:12:58.333Z,1.28
2023-01-28T01:15:32.158Z,1.26
2023-01-28T01:18:06.156Z,1.26
2023-01-28T01:20:40.160Z,1.26
2023-01-28T01:23:07.029Z,1.21
2023-01-28T01:25:40.169Z,1.21
2023-01-28T01:28:13.189Z,1.19
2023-01-28T01:30:46.287Z,1.18
2023-01-28T01:33:20.196Z,1.14
2023-01-28T01:36:01.254Z,1.14
2023-01-28T01:38:31.461Z,1.13
2023-01-28T01:41:06.220Z,1.10
2023-01-28T01:43:47.285Z,1.08
2023-01-28T01:46:22.288Z,1.06
2023-01-28T01:48:56.284Z,1.04
2023-01-28T01:51:38.220Z,0.97
2023-01-28T01:54:12.139Z,0.97
2023-01-28T01:56:49.171Z,0.92
2023-01-28T01:59:28.251Z,0.92
2023-01-28T02:02:12.185Z,0.89
2023-01-28T02:04:51.183Z,0.84
2023-01-28T02:07:26.178Z,0.83
2023-01-28T02:09:59.100Z,0.83
2023-01-28T02:12:35.281Z,0.77
2023-01-28T02:15:13.337Z,0.81
2023-01-28T02:17:48.134Z,0.84
2023-01-28T02:20:28.121Z,0.83
2023-01-28T02:23:33.875Z,0.84
2023-01-28T02:26:41.145Z,0.84
2023-01-28T02:29:38.768Z,0.82
2023-01-28T02:32:29.136Z,0.80
2023-01-28T02:35:12.913Z,0.79
2023-01-28T02:38:07.148Z,0.80
2023-01-28T02:41:09.210Z,0.78
2023-01-28T02:43:39.062Z,0.78
2023-01-28T02:46:40.185Z,0.75
2023-01-28T02:49:22.397Z,0.74
2023-01-28T02:52:49.139Z,0.72
2023-01-28T02:55:30.811Z,0.74
2023-01-28T02:58:25.215Z,0.68
2023-01-28T03:01:47.314Z,0.70
2023-01-28T03:04:35.115Z,0.67
2023-01-28T03:07:07.759Z,0.62
2023-01-28T03:09:44.154Z,0.65
2023-01-28T03:12:39.237Z,0.65
2023-01-28T03:15:43.280Z,0.61
2023-01-28T03:18:30.677Z,0.61
2023-01-28T03:21:32.138Z,0.55
2023-01-28T03:24:50.540Z,0.61
2023-01-28T03:27:45.198Z,0.58
2023-01-28T03:30:52.025Z,0.55
2023-01-28T03:33:44.222Z,0.52
2023-01-28T03:36:37.247Z,0.50
2023-01-28T03:39:04.277Z,0.50
2023-01-28T03:41:37.116Z,0.50
2023-01-28T03:44:29.181Z,0.47
2023-01-28T03:46:55.909Z,0.47
2023-01-28T03:49:29.153Z,0.47
2023-01-28T03:51:55.791Z,0.46
2023-01-28T03:54:29.193Z,0.44
2023-01-28T03:57:02.235Z,0.43
2023-01-28T03:59:35.153Z,0.44
2023-01-28T04:02:11.135Z,0.45
2023-01-28T04:04:46.206Z,0.32
2023-01-28T04:07:17.023Z,0.47
2023-01-28T04:09:51.183Z,0.45
2023-01-28T04:12:18.816Z,0.45
2023-01-28T04:14:52.206Z,0.44
2023-01-28T04:17:18.959Z,0.43
2023-01-28T04:19:52.240Z,0.44
2023-01-28T04:22:18.953Z,0.45
2023-01-28T04:24:45.685Z,0.44
2023-01-28T04:27:19.129Z,0.44
2023-01-28T04:29:45.775Z,0.44
2023-01-28T04:32:19.158Z,0.44
2023-01-28T04:34:45.998Z,0.41
2023-01-28T04:37:19.225Z,0.40
2023-01-28T04:39:46.020Z,0.42
2023-01-28T04:42:19.232Z,0.39
2023-01-28T04:44:52.206Z,0.41
2023-01-28T04:47:26.209Z,0.36
2023-01-28T04:49:52.967Z,0.45
2023-01-28T04:52:26.267Z,0.45
2023-01-28T04:54:52.938Z,0.44
2023-01-28T04:57:26.207Z,0.45
2023-01-28T04:59:59.218Z,0.42
2023-01-28T05:02:39.226Z,0.40
2023-01-28T05:05:15.649Z,0.43
2023-01-28T05:07:42.635Z,0.42
2023-01-28T05:10:16.230Z,0.40
2023-01-28T05:12:44.919Z,0.39
2023-01-28T05:15:18.235Z,0.39
2023-01-28T05:17:45.500Z,0.40
2023-01-28T05:20:20.192Z,0.41
2023-01-28T05:22:53.185Z,0.36
2023-01-28T05:25:26.205Z,0.39
2023-01-28T05:27:59.235Z,0.41
2023-01-28T05:30:25.948Z,0.39
2023-01-28T05:33:02.276Z,0.41
2023-01-28T05:35:35.245Z,0.42
2023-01-28T05:38:08.289Z,0.42
2023-01-28T05:40:35.030Z,0.42
2023-01-28T05:43:08.188Z,0.40
2023-01-28T05:45:34.909Z,0.41
2023-01-28T05:48:08.234Z,0.41
2023-01-28T05:50:35.034Z,0.38
2023-01-28T05:53:08.242Z,0.37
2023-01-28T05:55:35.670Z,0.35
2023-01-28T05:58:02.373Z,0.33
2023-01-28T06:00:35.196Z,0.32
2023-01-28T06:03:08.496Z,0.30
2023-01-28T06:05:42.207Z,0.30
2023-01-28T06:08:08.989Z,0.30
2023-01-28T06:10:42.276Z,0.29
2023-01-28T06:13:15.737Z,0.26
2023-01-28T06:15:49.274Z,0.19
2023-01-28T06:18:15.965Z,0.20
2023-01-28T06:20:49.244Z,0.18
2023-01-28T06:23:16.292Z,0.13
2023-01-28T06:25:49.234Z,0.13
2023-01-28T06:28:16.339Z,0.10
2023-01-28T06:30:49.312Z,0.08
2023-01-28T06:33:16.114Z,0.08
2023-01-28T06:35:49.231Z,0.07
2023-01-28T06:38:16.075Z,0.06
2023-01-28T06:40:49.261Z,0.07
2023-01-28T06:43:22.265Z,0.08
2023-01-28T06:45:55.414Z,0.06
2023-01-28T06:48:29.264Z,0.05
2023-01-28T06:50:56.099Z,0.10
2023-01-28T06:53:29.271Z,0.10
2023-01-28T06:56:02.387Z,0.08
2023-01-28T06:58:35.257Z,0.06
2023-01-28T07:01:08.364Z,0.07
2023-01-28T07:03:41.215Z,0.05
2023-01-28T07:06:08.179Z,0.02
2023-01-28T07:08:41.285Z,0.06
2023-01-28T07:11:08.433Z,0.10
2023-01-28T07:13:42.213Z,0.13
2023-01-28T07:16:15.254Z,0.15
2023-01-28T07:18:41.945Z,0.17
2023-01-28T07:21:15.443Z,0.18
2023-01-28T07:23:42.246Z,0.19
2023-01-28T07:26:15.368Z,0.17
2023-01-28T07:28:42.224Z,0.15
2023-01-28T07:31:15.424Z,0.16
2023-01-28T07:33:42.140Z,0.16
2023-01-28T07:36:15.231Z,0.17
2023-01-28T07:38:48.268Z,0.19
2023-01-28T07:41:14.977Z,0.20
2023-01-28T07:43:48.272Z,0.18
2023-01-28T07:46:21.279Z,0.21
2023-01-28T07:48:54.217Z,0.23
2023-01-28T07:51:20.850Z,0.25
2023-01-28T07:53:54.284Z,0.26
2023-01-28T07:56:20.957Z,0.29
2023-01-28T07:58:57.241Z,0.32
2023-01-28T08:01:30.787Z,0.33
2023-01-28T08:04:04.521Z,0.35
2023-01-28T08:06:31.452Z,0.34
2023-01-28T08:09:04.353Z,0.36
2023-01-28T08:11:31.016Z,0.41
2023-01-28T08:14:04.389Z,0.43
2023-01-28T08:16:38.354Z,0.44
2023-01-28T08:19:11.241Z,0.44
2023-01-28T08:21:44.303Z,0.42
2023-01-28T08:24:17.331Z,0.43
2023-01-28T08:26:44.127Z,0.45
2023-01-28T08:29:17.375Z,0.43
2023-01-28T08:31:50.339Z,0.45
2023-01-28T08:34:17.019Z,0.46
2023-01-28T08:36:50.270Z,0.51
2023-01-28T08:39:17.059Z,0.54
2023-01-28T08:41:50.315Z,0.55
2023-01-28T08:44:17.105Z,0.53
2023-01-28T08:46:50.298Z,0.57
2023-01-28T08:49:16.979Z,0.52
2023-01-28T08:51:50.243Z,0.53
2023-01-28T08:54:23.305Z,0.53
2023-01-28T08:56:51.653Z,0.54
2023-01-28T08:59:25.284Z,0.59
2023-01-28T09:01:58.874Z,0.62
2023-01-28T09:04:32.319Z,0.67
2023-01-28T09:06:59.140Z,0.71
2023-01-28T09:09:32.324Z,0.76
2023-01-28T09:12:05.303Z,0.76
2023-01-28T09:14:38.302Z,0.84
2023-01-28T09:17:12.319Z,0.87
2023-01-28T09:19:39.055Z,0.90
2023-01-28T09:22:06.717Z,0.93
2023-01-28T09:24:40.273Z,0.98
2023-01-28T09:27:07.292Z,1.02
2023-01-28T09:29:41.324Z,1.05
2023-01-28T09:32:08.059Z,1.05
2023-01-28T09:34:41.315Z,1.06
2023-01-28T09:37:08.151Z,1.04
2023-01-28T09:39:41.311Z,1.06
2023-01-28T09:42:23.352Z,1.01
2023-01-28T09:45:24.374Z,1.13
2023-01-28T09:48:03.287Z,1.33
2023-01-28T09:50:36.152Z,1.45
2023-01-28T09:53:31.403Z,1.63
2023-01-28T09:56:11.313Z,1.73
2023-01-28T09:58:44.330Z,1.79
2023-01-28T10:01:42.395Z,1.82
2023-01-28T10:04:47.264Z,1.85
2023-01-28T10:07:32.434Z,1.87
2023-01-28T10:10:13.617Z,1.98
2023-01-28T10:12:47.301Z,2.08
2023-01-28T10:16:00.306Z,2.15
2023-01-28T10:18:33.576Z,2.22
2023-01-28T10:21:15.266Z,2.21
2023-01-28T10:23:51.467Z,2.20
2023-01-28T10:26:36.298Z,2.02
2023-01-28T10:29:25.338Z,2.04
2023-01-28T10:32:01.326Z,2.34
2023-01-28T10:34:27.986Z,3.02
2023-01-28T10:37:04.312Z,3.62
2023-01-28T10:39:31.180Z,4.40
2023-01-28T10:42:04.349Z,5.00
2023-01-28T10:44:49.335Z,5.71
2023-01-28T10:47:34.293Z,6.30
2023-01-28T10:50:02.162Z,6.75
2023-01-28T10:52:35.347Z,6.94
2023-01-28T10:55:13.347Z,7.10
2023-01-28T10:57:49.393Z,7.00
2023-01-28T11:00:40.512Z,6.92
2023-01-28T11:03:25.301Z,7.15
2023-01-28T11:06:00.418Z,6.96
2023-01-28T11:08:36.370Z,6.35
2023-01-28T11:11:13.662Z,6.14
2023-01-28T11:13:56.381Z,5.99
2023-01-28T11:16:23.057Z,6.02
2023-01-28T11:19:01.427Z,6.08
2023-01-28T11:21:31.502Z,6.00
2023-01-28T11:24:10.391Z,6.13
2023-01-28T11:26:39.901Z,6.51
2023-01-28T11:29:13.349Z,6.84
2023-01-28T11:31:44.191Z,6.81
2023-01-28T11:34:24.373Z,6.85
2023-01-28T11:37:14.271Z,6.90
2023-01-28T11:39:47.381Z,6.97
2023-01-28T11:42:19.271Z,7.07
2023-01-28T11:44:53.402Z,7.22
2023-01-28T11:47:36.405Z,7.50
2023-01-28T11:50:41.324Z,7.47
2023-01-28T11:53:31.370Z,7.29
2023-01-28T11:56:33.318Z,7.35
2023-01-28T11:59:15.392Z,7.50
2023-01-28T12:01:58.468Z,7.59
2023-01-28T12:04:40.380Z,7.63
2023-01-28T12:07:16.367Z,7.81
2023-01-28T12:10:18.609Z,7.94
2023-01-28T12:13:13.832Z,8.18
2023-01-28T12:16:23.380Z,7.89
2023-01-28T12:19:11.386Z,8.17
2023-01-28T12:22:13.391Z,8.07
2023-01-28T12:25:11.461Z,7.98
2023-01-28T12:28:06.315Z,8.45
2023-01-28T12:31:02.432Z,8.85
2023-01-28T12:34:05.419Z,8.54
2023-01-28T12:36:34.695Z,8.38
2023-01-28T12:39:24.357Z,8.47
2023-01-28T12:42:09.344Z,8.58
2023-01-28T12:44:56.535Z,8.66
2023-01-28T12:47:29.774Z,8.78
2023-01-28T12:50:08.465Z,8.72
2023-01-28T12:52:40.999Z,8.65
2023-01-28T12:55:14.362Z,8.46
2023-01-28T12:57:41.989Z,8.10
2023-01-28T13:00:36.410Z,8.22
2023-01-28T13:03:26.406Z,7.82
2023-01-28T13:05:59.050Z,7.50
2023-01-28T13:08:34.386Z,6.91
2023-01-28T13:11:04.331Z,6.61
2023-01-28T13:13:43.423Z,6.11
2023-01-28T13:16:11.781Z,5.85
2023-01-28T13:18:50.375Z,5.75
2023-01-28T13:21:26.352Z,5.68
2023-01-28T13:24:08.429Z,5.84
2023-01-28T13:26:46.062Z,5.93
2023-01-28T13:29:22.516Z,6.14
2023-01-28T13:31:52.484Z,6.34
2023-01-28T13:34:43.420Z,6.44
2023-01-28T13:37:28.774Z,6.42
2023-01-28T13:40:10.379Z,6.51
2023-01-28T13:42:36.933Z,6.86
2023-01-28T13:45:22.421Z,7.11
2023-01-28T13:47:59.818Z,7.23
2023-01-28T13:50:44.359Z,7.19
2023-01-28T13:53:46.530Z,6.60
2023-01-28T13:56:28.431Z,6.05
2023-01-28T13:59:16.391Z,5.55
2023-01-28T14:02:08.401Z,5.26
2023-01-28T14:04:41.163Z,4.95
2023-01-28T14:07:45.501Z,4.65
2023-01-28T14:10:20.774Z,4.40
2023-01-28T14:13:01.511Z,4.26
2023-01-28T14:16:07.407Z,4.05
2023-01-28T14:18:49.463Z,3.88
2023-01-28T14:21:27.478Z,3.75
2023-01-28T14:24:03.448Z,3.65
2023-01-28T14:26:45.530Z,3.56
2023-01-28T14:29:40.437Z,3.49
2023-01-28T14:32:21.395Z,3.39
2023-01-28T14:34:55.504Z,3.32
2023-01-28T14:37:29.169Z,3.23
2023-01-28T14:40:14.882Z,3.14
2023-01-28T14:42:55.970Z,3.06
2023-01-28T14:45:29.468Z,3.03
2023-01-28T14:48:25.417Z,2.99
2023-01-28T14:51:17.432Z,2.93
2023-01-28T14:53:47.266Z,2.82
2023-01-28T14:56:40.811Z,2.84
2023-01-28T14:59:28.411Z,2.82
2023-01-28T15:02:04.389Z,2.76
2023-01-28T15:04:40.470Z,2.71
2023-01-28T15:07:21.735Z,2.70
2023-01-28T15:10:06.549Z,2.73
2023-01-28T15:12:44.435Z,2.73
2023-01-28T15:15:24.815Z,2.73
2023-01-28T15:17:59.429Z,2.71
2023-01-28T15:20:32.475Z,2.70
2023-01-28T15:23:07.551Z,2.69
2023-01-28T15:25:34.589Z,2.64
2023-01-28T15:28:02.081Z,2.57
2023-01-28T15:30:38.546Z,2.61
2023-01-28T15:33:19.574Z,2.56
2023-01-28T15:35:54.459Z,2.55
2023-01-28T15:38:28.427Z,2.48
2023-01-28T15:41:06.482Z,2.50
2023-01-28T15:43:45.514Z,2.47
2023-01-28T15:46:15.345Z,2.45
2023-01-28T15:48:52.437Z,2.37
2023-01-28T15:51:30.433Z,2.39
2023-01-28T15:54:00.776Z,2.30
2023-01-28T15:56:35.416Z,2.22
2023-01-28T15:59:27.512Z,2.19
2023-01-28T16:02:31.394Z,2.08
2023-01-28T16:05:10.662Z,2.01
2023-01-28T16:07:52.543Z,1.92
2023-01-28T16:10:24.187Z,1.84
2023-01-28T16:13:00.864Z,1.76
2023-01-28T16:15:27.832Z,1.69
2023-01-28T16:18:01.526Z,1.64
2023-01-28T16:20:30.438Z,1.61
2023-01-28T16:23:19.415Z,1.55
2023-01-28T16:25:46.093Z,1.50
2023-01-28T16:28:26.460Z,1.60
2023-01-28T16:30:53.201Z,5.47
2023-01-28T16:33:27.612Z,9.64
2023-01-28T16:36:08.036Z,15.50
2023-01-28T16:38:41.478Z,19.45
2023-01-28T16:41:38.119Z,12.30
2023-01-28T16:44:12.527Z,7.60
2023-01-28T16:46:40.210Z,5.14
2023-01-28T16:49:13.472Z,3.92
2023-01-28T16:51:50.495Z,3.13
2023-01-28T16:54:23.424Z,2.61
2023-01-28T16:57:13.483Z,2.29
2023-01-28T16:59:47.044Z,2.06
2023-01-28T17:02:29.504Z,1.94
2023-01-28T17:05:02.534Z,1.84
2023-01-28T17:07:35.565Z,1.79
2023-01-28T17:10:02.368Z,1.73
2023-01-28T17:12:35.460Z,1.74
2023-01-28T17:15:03.557Z,1.69
2023-01-28T17:17:36.579Z,1.70
2023-01-28T17:20:03.569Z,1.65
2023-01-28T17:22:36.566Z,1.65
2023-01-28T17:25:09.542Z,1.66
2023-01-28T17:27:36.360Z,1.66
2023-01-28T17:30:10.629Z,1.66
2023-01-28T17:32:37.350Z,1.63
2023-01-28T17:35:10.555Z,1.62
2023-01-28T17:37:38.459Z,1.62
2023-01-28T17:40:05.836Z,1.57
2023-01-28T17:42:39.548Z,1.51
2023-01-28T17:45:14.111Z,1.49
2023-01-28T17:47:47.509Z,1.59
2023-01-28T17:50:20.596Z,1.58
2023-01-28T17:52:53.531Z,1.55
2023-01-28T17:55:20.266Z,1.55
2023-01-28T17:57:53.623Z,1.57
2023-01-28T18:00:40.598Z,1.56
2023-01-28T18:03:13.462Z,1.55
2023-01-28T18:05:41.532Z,1.55
2023-01-28T18:08:15.452Z,1.53
2023-01-28T18:10:50.562Z,1.53
2023-01-28T18:13:23.545Z,1.53
2023-01-28T18:15:50.660Z,1.50
2023-01-28T18:18:23.496Z,1.50
2023-01-28T18:21:13.541Z,1.52
2023-01-28T18:23:46.655Z,1.53
2023-01-28T18:26:13.291Z,1.46
2023-01-28T18:28:46.690Z,1.47
2023-01-28T18:31:19.630Z,1.44
2023-01-28T18:33:47.546Z,1.41
2023-01-28T18:36:20.518Z,1.44
2023-01-28T18:38:47.308Z,1.41
2023-01-28T18:41:21.509Z,1.29
2023-01-28T18:43:54.582Z,1.38
2023-01-28T18:46:27.572Z,1.38
2023-01-28T18:49:03.548Z,1.36
2023-01-28T18:51:31.507Z,1.36
2023-01-28T18:54:08.814Z,1.32
2023-01-28T18:56:44.550Z,1.32
2023-01-28T18:59:19.586Z,1.30
2023-01-28T19:01:53.103Z,1.28
2023-01-28T19:04:26.561Z,1.29
2023-01-28T19:07:03.560Z,1.26
2023-01-28T19:09:36.642Z,1.29
2023-01-28T19:12:03.772Z,1.24
2023-01-28T19:14:37.589Z,1.27
2023-01-28T19:17:04.450Z,1.27
2023-01-28T19:19:37.536Z,1.19
2023-01-28T19:22:04.395Z,1.25
2023-01-28T19:24:37.672Z,1.23
2023-01-28T19:27:10.650Z,1.24
2023-01-28T19:29:43.609Z,1.23
2023-01-28T19:32:10.566Z,1.21
2023-01-28T19:34:37.230Z,1.22
2023-01-28T19:37:10.618Z,1.18
2023-01-28T19:39:37.619Z,1.24
2023-01-28T19:42:10.706Z,1.21
2023-01-28T19:44:37.460Z,1.21
2023-01-28T19:47:12.556Z,1.20
2023-01-28T19:49:39.330Z,1.23
2023-01-28T19:52:15.548Z,1.19
2023-01-28T19:54:42.434Z,1.21
2023-01-28T19:57:15.627Z,1.21
2023-01-28T19:59:48.646Z,1.21
2023-01-28T20:02:21.838Z,1.20
2023-01-28T20:05:00.861Z,1.20
2023-01-28T20:07:34.645Z,1.07
2023-01-28T20:10:01.339Z,1.20
2023-01-28T20:12:28.120Z,1.17
2023-01-28T20:15:01.643Z,1.19
2023-01-28T20:17:28.819Z,1.17
2023-01-28T20:20:02.565Z,1.14
2023-01-28T20:22:29.825Z,1.20
2023-01-28T20:25:03.743Z,1.17
2023-01-28T20:27:30.479Z,1.18
2023-01-28T20:30:03.588Z,1.13
2023-01-28T20:32:30.586Z,1.18
2023-01-28T20:35:03.577Z,1.18
2023-01-28T20:37:30.310Z,1.18
2023-01-28T20:40:03.630Z,1.19
2023-01-28T20:42:30.420Z,1.16
2023-01-28T20:44:57.109Z,1.09
2023-01-28T20:47:30.600Z,1.08
2023-01-28T20:49:57.476Z,1.03
2023-01-28T20:52:30.651Z,1.05
2023-01-28T20:55:03.677Z,1.14
2023-01-28T20:57:30.355Z,1.16
2023-01-28T21:00:03.666Z,1.15
2023-01-28T21:02:40.104Z,1.16
2023-01-28T21:05:13.731Z,1.13
2023-01-28T21:07:40.455Z,1.14
2023-01-28T21:10:14.702Z,1.13
2023-01-28T21:12:47.573Z,1.13
2023-01-28T21:15:20.525Z,1.10
2023-01-28T21:17:47.167Z,1.10
2023-01-28T21:20:20.631Z,1.08
2023-01-28T21:23:00.648Z,1.09
2023-01-28T21:25:27.358Z,1.08
2023-01-28T21:28:00.645Z,1.10
2023-01-28T21:30:27.282Z,1.05
2023-01-28T21:33:00.623Z,1.06
2023-01-28T21:35:27.275Z,1.05
2023-01-28T21:38:00.577Z,1.10
2023-01-28T21:40:27.422Z,1.10
2023-01-28T21:43:01.589Z,1.10
2023-01-28T21:45:28.500Z,1.08
2023-01-28T21:48:01.581Z,1.05
2023-01-28T21:50:28.269Z,1.07
2023-01-28T21:52:54.972Z,1.03
2023-01-28T21:55:28.629Z,1.02
2023-01-28T21:58:21.620Z,1.09
2023-01-28T22:00:54.576Z,1.05
2023-01-28T22:03:27.988Z,1.07
2023-01-28T22:06:02.645Z,1.10
2023-01-28T22:08:29.356Z,1.07
2023-01-28T22:11:03.627Z,1.09
2023-01-28T22:13:31.550Z,1.10
2023-01-28T22:16:04.670Z,1.09
2023-01-28T22:18:31.524Z,1.08
2023-01-28T22:21:09.630Z,1.06
2023-01-28T22:23:36.438Z,1.07
2023-01-28T22:26:09.625Z,1.08
2023-01-28T22:28:37.385Z,1.06
2023-01-28T22:31:15.732Z,1.06
2023-01-28T22:33:43.359Z,1.05
2023-01-28T22:36:21.595Z,1.04
2023-01-28T22:38:48.417Z,1.05
2023-01-28T22:41:29.610Z,0.90
2023-01-28T22:44:02.628Z,1.04
2023-01-28T22:46:29.803Z,1.04
2023-01-28T22:49:03.649Z,1.02
2023-01-28T22:51:32.440Z,0.99
2023-01-28T22:54:05.649Z,1.01
2023-01-28T22:56:32.385Z,1.00
2023-01-28T22:59:08.600Z,0.99
2023-01-28T23:01:48.655Z,0.95
2023-01-28T23:04:28.649Z,0.97
2023-01-28T23:06:55.611Z,0.95
2023-01-28T23:09:28.667Z,0.94
2023-01-28T23:11:55.503Z,0.96
2023-01-28T23:14:47.648Z,0.95
2023-01-28T23:17:32.889Z,0.94
2023-01-28T23:20:38.644Z,0.87
2023-01-28T23:23:30.631Z,0.95
2023-01-28T23:26:05.678Z,0.91
2023-01-28T23:28:33.488Z,0.92
2023-01-28T23:31:07.728Z,0.92
2023-01-28T23:33:37.089Z,0.95
2023-01-28T23:36:10.695Z,0.90
2023-01-28T23:38:43.686Z,0.90
2023-01-28T23:41:10.374Z,0.93
2023-01-28T23:43:43.605Z,0.90
2023-01-28T23:46:17.992Z,0.89
2023-01-28T23:48:44.850Z,0.88
2023-01-28T23:51:11.559Z,0.84
2023-01-28T23:53:44.699Z,0.81
2023-01-28T23:56:11.462Z,0.87
2023-01-28T23:58:44.638Z,0.88
